LYTR weather

Trstenik Airport
Trstenik, Rasina, Serbia

Public forecast

Using degrees Celsius for public forecast. Weather courtesy of forecast.io.

METAR (pilot weather report)

Closest report is Morava Airport, 22.8 nm (42.2 km) WNW. Retrieved 2019/06/20 20:30 UTC (12 minutes ago):

LYKV 202030Z VRB04KT 9999 SCT040 20/17 Q1014 NOSIG

TAF (pilot weather forecast)

Closest forecast is Morava Airport, 22.8 nm (42.2 km) WNW. Retrieved 2019/06/20 18:00 UTC (3 hours ago):

TAF LYKV 201700Z 2018/2118 VRB02KT 9999 SCT040 TX30/2113Z TN17/2103Z PROB30 TEMPO 2018/2020 4000 TSRA SCT027CB SCT033 TEMPO 2102/2105 1500 BR TEMPO 2112/2118 VRB15G25KT 3000 TSRA SCT027CB SCT033